createdAt,value
2017-12-11T00:00:35.852Z,7.98
2017-12-11T00:01:45.672Z,7.96
2017-12-11T00:02:55.491Z,8.03
2017-12-11T00:04:04.498Z,7.92
2017-12-11T00:05:14.594Z,7.93
2017-12-11T00:06:24.685Z,7.93
2017-12-11T00:07:34.766Z,8.01
2017-12-11T00:08:44.849Z,7.99
2017-12-11T00:09:54.961Z,7.92
2017-12-11T00:11:04.753Z,7.96
2017-12-11T00:12:14.815Z,7.95
2017-12-11T00:13:24.868Z,7.92
2017-12-11T00:14:34.673Z,7.89
2017-12-11T00:15:44.253Z,7.91
2017-12-11T00:16:54.074Z,7.91
2017-12-11T00:18:03.879Z,7.88
2017-12-11T00:19:15.197Z,7.77
2017-12-11T00:20:26.108Z,7.82
2017-12-11T00:21:37.427Z,7.83
2017-12-11T00:22:47.221Z,7.88
2017-12-11T00:23:57.278Z,7.85
2017-12-11T00:25:07.072Z,7.86
2017-12-11T00:26:17.159Z,7.89
2017-12-11T00:27:27.215Z,7.89
2017-12-11T00:28:38.032Z,7.91
2017-12-11T00:29:47.921Z,7.91
2017-12-11T00:30:58.001Z,7.89
2017-12-11T00:32:08.058Z,7.88
2017-12-11T00:33:17.853Z,7.93
2017-12-11T00:34:27.896Z,7.92
2017-12-11T00:35:36.907Z,7.92
2017-12-11T00:36:47.030Z,7.92
2017-12-11T00:37:57.083Z,7.89
2017-12-11T00:39:06.879Z,7.86
2017-12-11T00:40:16.666Z,7.78
2017-12-11T00:41:26.749Z,7.8
2017-12-11T00:42:36.799Z,7.8
2017-12-11T00:43:46.855Z,7.92
2017-12-11T00:44:56.920Z,7.82
2017-12-11T00:46:06.717Z,7.82
2017-12-11T00:47:16.775Z,7.77
2017-12-11T00:48:26.315Z,7.75
2017-12-11T00:49:36.388Z,7.71
2017-12-11T00:50:46.447Z,7.71
2017-12-11T00:51:56.514Z,7.74
2017-12-11T00:53:06.314Z,7.71
2017-12-11T00:54:15.852Z,7.75
2017-12-11T00:55:25.638Z,7.78
2017-12-11T00:56:35.675Z,7.71
2017-12-11T00:57:45.725Z,7.74
2017-12-11T00:58:55.760Z,7.68
2017-12-11T01:00:05.297Z,7.73
2017-12-11T01:01:15.355Z,7.68
2017-12-11T01:02:25.450Z,7.67
2017-12-11T01:03:37.346Z,7.63
2017-12-11T01:04:47.144Z,7.64
2017-12-11T01:05:57.205Z,7.59
2017-12-11T01:07:06.976Z,7.58
2017-12-11T01:08:16.537Z,7.61
2017-12-11T01:09:26.071Z,7.63
2017-12-11T01:10:36.131Z,7.58
2017-12-11T01:11:46.193Z,7.56
2017-12-11T01:12:56.264Z,7.59
2017-12-11T01:14:06.318Z,7.61
2017-12-11T01:15:16.500Z,7.63
2017-12-11T01:16:26.797Z,7.64
2017-12-11T01:17:36.827Z,7.68
2017-12-11T01:18:46.885Z,7.68
2017-12-11T01:19:56.681Z,7.71
2017-12-11T01:21:06.742Z,7.71
2017-12-11T01:22:16.528Z,7.74
2017-12-11T01:23:26.066Z,7.73
2017-12-11T01:24:36.113Z,7.74
2017-12-11T01:25:46.226Z,7.74
2017-12-11T01:26:56.286Z,7.75
2017-12-11T01:28:06.341Z,7.78
2017-12-11T01:29:16.408Z,7.86
2017-12-11T01:30:26.462Z,7.77
2017-12-11T01:31:36.517Z,7.88
2017-12-11T01:32:46.314Z,7.86
2017-12-11T01:33:56.360Z,7.8
2017-12-11T01:35:06.406Z,7.78
2017-12-11T01:36:16.452Z,7.82
2017-12-11T01:37:26.527Z,7.68
2017-12-11T01:38:36.585Z,7.77
2017-12-11T01:39:46.389Z,7.75
2017-12-11T01:40:56.187Z,7.7
2017-12-11T01:42:06.242Z,7.64
2017-12-11T01:43:16.645Z,7.67
2017-12-11T01:44:26.706Z,7.64
2017-12-11T01:45:36.778Z,7.67
2017-12-11T01:46:46.827Z,7.64
2017-12-11T01:47:56.607Z,7.61
2017-12-11T01:49:06.518Z,7.59
2017-12-11T01:50:16.315Z,7.74
2017-12-11T01:51:27.286Z,7.73
2017-12-11T01:52:37.330Z,7.73
2017-12-11T01:53:47.378Z,7.7
2017-12-11T01:54:57.167Z,7.7
2017-12-11T01:56:06.964Z,7.74
2017-12-11T01:57:17.061Z,7.75
2017-12-11T01:58:27.132Z,7.75
2017-12-11T01:59:37.186Z,7.71
2017-12-11T02:00:47.293Z,7.74
2017-12-11T02:01:57.096Z,7.71
2017-12-11T02:03:07.151Z,7.73
2017-12-11T02:04:17.202Z,7.73
2017-12-11T02:05:26.991Z,7.71
2017-12-11T02:06:36.825Z,7.73
2017-12-11T02:07:46.917Z,7.73
2017-12-11T02:08:56.764Z,7.68
2017-12-11T02:10:06.544Z,7.67
2017-12-11T02:11:16.603Z,7.73
2017-12-11T02:12:26.404Z,7.68
2017-12-11T02:13:36.455Z,7.7
2017-12-11T02:14:46.522Z,7.68
2017-12-11T02:15:56.586Z,7.64
2017-12-11T02:17:06.694Z,7.75
2017-12-11T02:18:16.745Z,7.71
2017-12-11T02:19:26.556Z,7.74
2017-12-11T02:20:36.345Z,7.73
2017-12-11T02:21:46.134Z,7.7
2017-12-11T02:22:56.195Z,7.71
2017-12-11T02:24:05.981Z,7.73
2017-12-11T02:25:15.761Z,7.78
2017-12-11T02:26:25.819Z,7.77
2017-12-11T02:27:35.856Z,7.73
2017-12-11T02:28:45.955Z,7.75
2017-12-11T02:29:56.002Z,7.74
2017-12-11T02:31:05.806Z,7.78
2017-12-11T02:32:15.883Z,7.77
2017-12-11T02:33:25.946Z,7.78
2017-12-11T02:34:36.552Z,7.78
2017-12-11T02:35:46.615Z,7.78
2017-12-11T02:36:56.690Z,7.82
2017-12-11T02:38:06.764Z,7.75
2017-12-11T02:39:16.951Z,7.88
2017-12-11T02:40:27.019Z,7.75
2017-12-11T02:41:37.113Z,7.78
2017-12-11T02:42:47.201Z,7.77
2017-12-11T02:43:56.716Z,7.71
2017-12-11T02:45:06.241Z,7.71
2017-12-11T02:46:16.350Z,7.71
2017-12-11T02:47:26.140Z,7.78
2017-12-11T02:48:35.943Z,7.78
2017-12-11T02:49:46.001Z,7.82
2017-12-11T02:50:56.066Z,7.77
2017-12-11T02:52:05.934Z,7.85
2017-12-11T02:53:15.978Z,7.92
2017-12-11T02:54:26.038Z,7.99
2017-12-11T02:55:36.093Z,7.99
2017-12-11T02:56:45.906Z,8.06
2017-12-11T02:57:55.706Z,7.99
2017-12-11T02:59:05.826Z,7.98
2017-12-11T03:00:15.887Z,7.92
2017-12-11T03:01:25.669Z,7.95
2017-12-11T03:02:35.462Z,8.04
2017-12-11T03:33:57.118Z,5.64
2017-12-11T03:35:07.163Z,5.54
2017-12-11T03:36:17.206Z,5.64
2017-12-11T03:37:26.972Z,5.54
2017-12-11T03:38:36.750Z,5.72
2017-12-11T03:39:46.908Z,5.7
2017-12-11T03:40:57.980Z,5.92
2017-12-11T03:42:08.035Z,6
2017-12-11T03:43:17.825Z,6.15
2017-12-11T03:44:27.868Z,6.33
2017-12-11T03:45:37.904Z,6.47
2017-12-11T03:46:47.951Z,6.51
2017-12-11T03:47:58.074Z,6.79
2017-12-11T03:49:08.130Z,6.8
2017-12-11T03:50:17.647Z,7
2017-12-11T03:51:27.442Z,7.03
2017-12-11T03:52:37.485Z,7.23
2017-12-11T03:53:47.006Z,7.34
2017-12-11T03:54:56.788Z,7.47
2017-12-11T03:56:06.841Z,7.55
2017-12-11T03:57:16.627Z,7.67
2017-12-11T03:58:26.417Z,7.64
2017-12-11T03:59:36.468Z,7.73
2017-12-11T04:00:46.267Z,7.89
2017-12-11T04:01:56.043Z,7.89
2017-12-11T04:03:05.881Z,7.91
2017-12-11T04:04:15.684Z,7.96
2017-12-11T04:05:25.725Z,8.07
2017-12-11T04:06:35.518Z,8.01
2017-12-11T04:07:45.598Z,8.14
2017-12-11T04:08:55.653Z,8.13
2017-12-11T04:10:05.445Z,8.17
2017-12-11T04:11:15.493Z,8.16
2017-12-11T04:12:25.544Z,8.26
2017-12-11T04:13:35.604Z,8.34
2017-12-11T04:14:45.654Z,8.29
2017-12-11T04:15:55.946Z,8.32
2017-12-11T04:17:05.989Z,8.26
2017-12-11T04:18:16.025Z,8.34
2017-12-11T04:19:25.825Z,8.42
2017-12-11T04:20:35.904Z,8.31
2017-12-11T04:21:45.954Z,8.36
2017-12-11T04:22:56.009Z,8.42
2017-12-11T04:24:05.542Z,8.39
2017-12-11T04:25:15.584Z,8.4
2017-12-11T04:26:25.683Z,8.39
2017-12-11T04:27:35.452Z,8.39
2017-12-11T04:28:45.229Z,8.4
2017-12-11T04:29:55.007Z,8.35
2017-12-11T04:31:05.060Z,8.49
2017-12-11T04:32:15.165Z,8.44
2017-12-11T04:33:26.112Z,8.43
2017-12-11T04:34:36.174Z,8.25
2017-12-11T04:35:46.224Z,8.35
2017-12-11T04:36:56.023Z,8.25
2017-12-11T04:38:05.808Z,8.31
2017-12-11T04:39:15.865Z,8.17
2017-12-11T04:40:25.666Z,8.32
2017-12-11T04:41:35.197Z,8.21
2017-12-11T04:42:45.002Z,8.31
2017-12-11T04:43:54.794Z,8.34
2017-12-11T04:45:04.650Z,8.31
2017-12-11T04:46:14.435Z,8.43
2017-12-11T04:47:24.274Z,8.42
2017-12-11T04:48:34.074Z,8.42
2017-12-11T04:49:43.610Z,8.34
2017-12-11T04:50:54.306Z,8.36
2017-12-11T04:52:04.376Z,8.43
2017-12-11T04:53:14.153Z,8.31
2017-12-11T04:54:24.217Z,8.39
2017-12-11T04:55:34.265Z,8.42
2017-12-11T04:56:44.056Z,8.34
2017-12-11T04:57:54.112Z,8.31
2017-12-11T04:59:03.907Z,8.26
2017-12-11T05:00:13.689Z,8.35
2017-12-11T05:01:23.812Z,8.44
2017-12-11T05:02:33.363Z,8.36
2017-12-11T05:03:43.414Z,8.31
2017-12-11T05:04:53.448Z,8.46
2017-12-11T05:06:03.236Z,8.42
2017-12-11T05:07:14.649Z,8.32
2017-12-11T05:08:24.175Z,8.4
2017-12-11T05:09:33.981Z,8.43
2017-12-11T05:10:43.786Z,8.46
2017-12-11T05:11:53.849Z,8.35
2017-12-11T05:13:03.431Z,8.29
2017-12-11T05:14:13.218Z,8.42
2017-12-11T05:15:22.750Z,8.42
2017-12-11T05:16:32.806Z,8.26
2017-12-11T05:17:42.854Z,8.31
2017-12-11T05:18:52.647Z,8.29
2017-12-11T05:20:02.706Z,8.32
2017-12-11T05:21:12.759Z,8.32
2017-12-11T05:22:22.284Z,8.32
2017-12-11T05:23:32.072Z,8.16
2017-12-11T05:24:41.844Z,8.22
2017-12-11T05:25:51.642Z,8.31
2017-12-11T05:27:01.452Z,8.25
2017-12-11T05:28:11.500Z,8.31
2017-12-11T05:29:21.295Z,8.22
2017-12-11T05:30:31.407Z,8.21
2017-12-11T05:31:41.195Z,8.25
2017-12-11T05:32:51.251Z,8.22
2017-12-11T05:34:01.300Z,8.22
2017-12-11T05:35:11.095Z,8.21
2017-12-11T05:36:21.143Z,8.24
2017-12-11T05:37:30.404Z,8.11
2017-12-11T05:38:40.210Z,8.14
2017-12-11T05:39:49.996Z,8.11
2017-12-11T05:41:00.059Z,8.14
2017-12-11T05:42:10.268Z,8.11
2017-12-11T05:43:20.321Z,8.14
2017-12-11T05:44:30.095Z,8.19
2017-12-11T05:45:39.935Z,8.22
2017-12-11T05:46:49.981Z,8.1
2017-12-11T05:47:59.514Z,8.13
2017-12-11T05:49:09.053Z,8.09
2017-12-11T05:50:19.117Z,8.09
2017-12-11T05:51:28.924Z,8.26
2017-12-11T05:52:38.729Z,8.19
2017-12-11T05:53:48.796Z,8.16
2017-12-11T05:54:58.853Z,8.22
2017-12-11T05:56:08.922Z,8.25
2017-12-11T05:57:19.022Z,8.17
2017-12-11T05:58:28.284Z,8.21
2017-12-11T05:59:38.212Z,8.16
2017-12-11T06:00:47.997Z,8.24
2017-12-11T06:01:57.792Z,8.24
2017-12-11T06:03:07.902Z,8.16
2017-12-11T06:04:17.704Z,8.21
2017-12-11T06:05:28.069Z,8.14
2017-12-11T06:06:37.858Z,8.16
2017-12-11T06:07:47.978Z,8.19
2017-12-11T06:08:57.780Z,8.21
2017-12-11T06:10:07.840Z,8.19
2017-12-11T06:11:17.629Z,8.17
2017-12-11T06:12:27.444Z,8.21
2017-12-11T06:13:37.249Z,8.25
2017-12-11T06:14:47.080Z,8.19
2017-12-11T06:15:57.145Z,8.25
2017-12-11T06:17:07.212Z,8.29
2017-12-11T06:18:17.029Z,8.31
2017-12-11T06:19:26.827Z,8.34
2017-12-11T06:20:36.707Z,8.32
2017-12-11T06:21:46.759Z,8.32
2017-12-11T06:22:56.836Z,8.29
2017-12-11T06:24:06.892Z,8.31
2017-12-11T06:25:16.946Z,8.35
2017-12-11T06:26:26.997Z,8.26
2017-12-11T06:27:36.794Z,8.26
2017-12-11T06:28:46.335Z,8.25
2017-12-11T06:29:56.133Z,8.29
2017-12-11T06:31:05.673Z,8.43
2017-12-11T06:32:15.249Z,8.42
2017-12-11T06:33:25.041Z,8.39
2017-12-11T06:34:34.830Z,8.43
2017-12-11T06:35:44.886Z,8.5
2017-12-11T06:36:54.932Z,8.47
2017-12-11T06:38:04.977Z,8.44
2017-12-11T06:39:15.021Z,8.53
2017-12-11T06:40:24.307Z,8.46
2017-12-11T06:41:34.353Z,8.46
2017-12-11T06:42:44.390Z,8.6
2017-12-11T06:43:54.433Z,8.47
2017-12-11T06:45:04.533Z,8.58
2017-12-11T06:46:14.587Z,8.57
2017-12-11T06:47:24.130Z,8.49
2017-12-11T06:48:33.925Z,8.54
2017-12-11T06:49:43.453Z,8.64
2017-12-11T06:50:53.515Z,8.57
2017-12-11T06:52:03.305Z,8.61
2017-12-11T06:53:13.083Z,8.67
2017-12-11T06:54:22.883Z,8.72
2017-12-11T06:55:32.677Z,8.74
2017-12-11T06:56:42.734Z,8.82
2017-12-11T06:57:52.515Z,8.77
2017-12-11T06:59:02.570Z,8.82
2017-12-11T07:00:12.657Z,8.89
2017-12-11T07:01:22.722Z,8.8
2017-12-11T07:02:32.813Z,8.92
2017-12-11T07:03:42.942Z,8.97
2017-12-11T07:04:52.739Z,8.92
2017-12-11T07:06:02.520Z,8.95
2017-12-11T07:07:12.579Z,9.01
2017-12-11T07:08:22.366Z,8.98
2017-12-11T07:09:32.173Z,9.21
2017-12-11T07:10:42.233Z,9.14
2017-12-11T07:11:51.755Z,9.17
2017-12-11T07:13:01.827Z,9.19
2017-12-11T07:14:11.350Z,9.26
2017-12-11T07:15:21.400Z,9.26
2017-12-11T07:16:31.467Z,9.32
2017-12-11T07:17:41.258Z,9.34
2017-12-11T07:18:51.060Z,9.38
2017-12-11T07:20:00.908Z,9.41
2017-12-11T07:21:10.699Z,9.47
2017-12-11T07:22:20.509Z,9.55
2017-12-11T07:23:30.298Z,9.56
2017-12-11T07:24:40.353Z,9.67
2017-12-11T07:25:49.887Z,9.75
2017-12-11T07:26:59.680Z,9.82
2017-12-11T07:28:09.463Z,9.84
2017-12-11T07:29:19.513Z,9.85
2017-12-11T07:30:29.575Z,9.95
2017-12-11T07:31:39.634Z,10.05
2017-12-11T07:32:50.640Z,10.15
2017-12-11T07:34:00.707Z,10.18
2017-12-11T07:35:10.504Z,10.32
2017-12-11T07:36:20.561Z,10.39
2017-12-11T07:37:30.353Z,10.38
2017-12-11T07:38:40.140Z,10.46
2017-12-11T07:39:49.932Z,10.55
2017-12-11T07:41:00.035Z,10.54
2017-12-11T07:42:10.086Z,10.51
2017-12-11T07:43:19.617Z,10.59
2017-12-11T07:44:29.413Z,10.76
2017-12-11T07:45:39.472Z,10.72
2017-12-11T07:46:49.536Z,10.84
2017-12-11T07:47:59.634Z,10.77
2017-12-11T07:49:09.697Z,10.88
2017-12-11T07:50:19.753Z,10.92
2017-12-11T07:51:29.550Z,10.95
2017-12-11T07:52:39.616Z,10.97
2017-12-11T07:53:49.672Z,11.03
2017-12-11T07:54:59.504Z,11.12
2017-12-11T07:56:08.775Z,11.16
2017-12-11T07:57:18.837Z,11.16
2017-12-11T07:58:29.737Z,11.21
2017-12-11T07:59:39.825Z,11.3
2017-12-11T08:00:49.884Z,11.35
2017-12-11T08:01:59.415Z,11.41
2017-12-11T08:03:09.453Z,11.46
2017-12-11T08:04:19.001Z,11.43
2017-12-11T08:05:28.808Z,11.34
2017-12-11T08:06:38.926Z,11.46
2017-12-11T08:07:48.990Z,11.46
2017-12-11T08:08:58.786Z,11.48
2017-12-11T08:10:08.574Z,11.41
2017-12-11T08:11:18.380Z,11.52
2017-12-11T08:12:28.487Z,11.51
2017-12-11T08:13:38.032Z,11.52
2017-12-11T08:14:48.073Z,11.48
2017-12-11T08:15:58.145Z,11.48
2017-12-11T08:17:07.674Z,11.49
2017-12-11T08:18:17.476Z,11.51
2017-12-11T08:19:28.228Z,11.59
2017-12-11T08:20:38.911Z,11.63
2017-12-11T08:21:49.446Z,11.71
2017-12-11T08:22:59.526Z,11.63
2017-12-11T08:24:09.588Z,11.66
2017-12-11T08:25:19.317Z,11.78
2017-12-11T08:26:29.383Z,11.76
2017-12-11T08:27:39.439Z,11.73
2017-12-11T08:28:49.500Z,11.89
2017-12-11T08:29:59.667Z,11.79
2017-12-11T08:31:09.180Z,11.94
2017-12-11T08:32:18.977Z,11.89
2017-12-11T08:33:28.513Z,12.05
2017-12-11T08:34:38.577Z,12.08
2017-12-11T08:35:48.379Z,12.16
2017-12-11T08:36:58.180Z,12.19
2017-12-11T08:38:07.972Z,12.08
2017-12-11T08:39:17.773Z,12.26
2017-12-11T08:40:27.569Z,12.38
2017-12-11T08:41:37.375Z,12.28
2017-12-11T08:42:47.162Z,12.41
2017-12-11T08:43:57.233Z,12.44
2017-12-11T08:45:07.035Z,12.58
2017-12-11T08:46:17.631Z,12.59
2017-12-11T08:47:27.738Z,12.71
2017-12-11T08:48:37.805Z,12.83
2017-12-11T08:49:47.877Z,12.86
2017-12-11T08:50:57.674Z,12.86
2017-12-11T08:52:07.793Z,12.98
2017-12-11T08:53:17.590Z,13.11
2017-12-11T08:54:27.165Z,13.17
2017-12-11T08:55:37.245Z,13.25
2017-12-11T08:56:47.311Z,13.37
2017-12-11T08:57:57.105Z,13.44
2017-12-11T08:59:06.379Z,13.53
2017-12-11T09:00:16.163Z,13.53
2017-12-11T09:01:26.215Z,13.48
2017-12-11T09:02:36.276Z,13.53
2017-12-11T09:03:46.064Z,13.5
2017-12-11T09:04:56.144Z,13.47
2017-12-11T09:06:05.946Z,13.53
2017-12-11T09:07:15.743Z,13.54
2017-12-11T09:08:25.819Z,13.62
2017-12-11T09:09:35.612Z,13.55
2017-12-11T09:10:45.714Z,13.6
2017-12-11T09:11:55.779Z,13.68
2017-12-11T09:13:05.853Z,13.66
2017-12-11T09:14:15.888Z,13.69
2017-12-11T09:15:27.647Z,13.76
2017-12-11T09:16:37.512Z,13.83
2017-12-11T09:17:47.582Z,13.81
2017-12-11T09:18:57.728Z,13.84
2017-12-11T09:20:07.003Z,13.93
2017-12-11T09:21:17.046Z,13.87
2017-12-11T09:22:27.175Z,13.94
2017-12-11T09:23:36.976Z,13.91
2017-12-11T09:24:47.027Z,13.9
2017-12-11T09:25:57.427Z,13.83
2017-12-11T09:27:07.217Z,13.93
2017-12-11T09:28:17.005Z,13.86
2017-12-11T09:29:26.807Z,13.9
2017-12-11T09:30:36.863Z,14.02
2017-12-11T09:31:46.998Z,13.94
2017-12-11T09:32:56.808Z,13.94
2017-12-11T09:34:06.674Z,13.95
2017-12-11T09:35:16.501Z,14.01
2017-12-11T09:36:26.591Z,13.93
2017-12-11T09:37:36.115Z,13.99
2017-12-11T09:38:46.196Z,13.93
2017-12-11T09:39:56.337Z,13.95
2017-12-11T09:41:05.892Z,14.09
2017-12-11T09:42:15.693Z,14.05
2017-12-11T09:43:25.517Z,14.02
2017-12-11T09:44:35.571Z,14.05
2017-12-11T09:45:45.631Z,14.03
2017-12-11T09:46:55.676Z,14.06
2017-12-11T09:48:05.726Z,13.99
2017-12-11T09:49:15.526Z,14.05
2017-12-11T09:50:25.311Z,14.03
2017-12-11T09:51:35.426Z,14.03
2017-12-11T09:52:45.487Z,14.15
2017-12-11T09:53:55.539Z,14.11
2017-12-11T09:55:05.605Z,14.11
2017-12-11T09:56:15.393Z,14.2
2017-12-11T09:57:25.215Z,14.21
2017-12-11T09:58:35.017Z,14.24
2017-12-11T09:59:45.079Z,14.28
2017-12-11T10:00:55.994Z,14.44
2017-12-11T10:02:06.052Z,14.38
2017-12-11T10:03:15.908Z,14.49
2017-12-11T10:04:25.705Z,14.42
2017-12-11T10:05:35.532Z,14.56
2017-12-11T10:06:45.328Z,14.49
2017-12-11T10:07:55.379Z,14.59
2017-12-11T10:09:05.231Z,14.63
2017-12-11T10:10:14.771Z,14.53
2017-12-11T10:11:24.855Z,14.7
2017-12-11T10:12:34.651Z,14.74
2017-12-11T10:13:44.709Z,14.85
2017-12-11T10:14:54.506Z,14.86
2017-12-11T10:16:04.336Z,14.95
2017-12-11T10:17:14.130Z,14.9
2017-12-11T10:18:23.657Z,14.98
2017-12-11T10:19:33.179Z,15.02
2017-12-11T10:20:43.241Z,15.12
2017-12-11T10:21:53.310Z,15.12
2017-12-11T10:23:03.093Z,15.15
2017-12-11T10:24:13.217Z,15.19
2017-12-11T10:25:23.026Z,15.15
2017-12-11T10:26:32.888Z,15.23
2017-12-11T10:27:42.939Z,15.16
2017-12-11T10:28:52.757Z,15.15
2017-12-11T10:30:02.568Z,15.13
2017-12-11T10:31:12.400Z,15.08
2017-12-11T10:32:22.223Z,15.16
2017-12-11T10:33:32.292Z,15.18
2017-12-11T10:34:42.355Z,15.12
2017-12-11T10:35:52.409Z,15.08
2017-12-11T10:37:02.195Z,15.15
2017-12-11T10:38:11.751Z,15.15
2017-12-11T10:39:21.567Z,15.19
2017-12-11T10:40:31.634Z,15.19
2017-12-11T10:41:41.697Z,15.25
2017-12-11T10:42:51.507Z,15.26
2017-12-11T10:44:01.552Z,15.23
2017-12-11T10:45:11.667Z,15.25
2017-12-11T10:46:21.569Z,15.23
2017-12-11T10:47:31.650Z,15.26
2017-12-11T10:48:41.473Z,15.26
2017-12-11T10:49:51.516Z,15.25
2017-12-11T10:51:01.634Z,15.33
2017-12-11T10:52:11.443Z,15.31
2017-12-11T10:53:21.285Z,15.25
2017-12-11T10:54:31.098Z,15.26
2017-12-11T10:55:40.897Z,15.22
2017-12-11T10:56:50.963Z,15.26
2017-12-11T10:58:00.805Z,15.08
2017-12-11T10:59:10.908Z,15.08
2017-12-11T11:00:20.965Z,15.15
2017-12-11T11:01:30.771Z,15.15
2017-12-11T11:02:40.576Z,15.12
2017-12-11T11:03:50.374Z,15.1
2017-12-11T11:05:00.441Z,15.25
2017-12-11T11:06:10.495Z,15.23
2017-12-11T11:07:20.583Z,15.22
2017-12-11T11:08:30.978Z,15.25
2017-12-11T11:09:41.033Z,15.33
2017-12-11T11:10:50.863Z,15.26
2017-12-11T11:12:00.688Z,15.25
2017-12-11T11:13:10.766Z,15.27
2017-12-11T11:14:20.633Z,15.18
2017-12-11T11:15:30.725Z,15.3
2017-12-11T11:16:40.789Z,15.22
2017-12-11T11:17:50.858Z,15.18
2017-12-11T11:19:00.665Z,15.08
2017-12-11T11:20:10.788Z,15.07
2017-12-11T11:21:20.874Z,15.08
2017-12-11T11:22:30.682Z,14.98
2017-12-11T11:23:40.483Z,14.95
2017-12-11T11:24:50.560Z,14.9
2017-12-11T11:26:00.633Z,14.86
2017-12-11T11:27:10.438Z,14.93
2017-12-11T11:28:20.500Z,14.86
2017-12-11T11:29:30.303Z,14.8
2017-12-11T11:30:40.420Z,14.74
2017-12-11T11:31:50.489Z,14.85
2017-12-11T11:33:00.623Z,14.79
2017-12-11T11:34:10.690Z,14.82
2017-12-11T11:35:20.742Z,14.82
2017-12-11T11:36:30.550Z,14.79
2017-12-11T11:37:40.412Z,14.8
2017-12-11T11:38:49.965Z,14.77
2017-12-11T11:39:59.763Z,14.77
2017-12-11T11:41:09.556Z,14.7
2017-12-11T11:42:19.638Z,14.71
2017-12-11T11:43:29.696Z,14.8
2017-12-11T11:44:39.736Z,14.63
2017-12-11T11:45:49.800Z,14.69
2017-12-11T11:46:59.890Z,14.61
2017-12-11T11:48:09.691Z,14.59
2017-12-11T11:49:19.805Z,14.7
2017-12-11T11:50:29.886Z,14.63
2017-12-11T11:51:39.422Z,14.59
2017-12-11T11:52:49.248Z,14.46
2017-12-11T11:53:59.321Z,14.51
2017-12-11T11:55:09.369Z,14.49
2017-12-11T11:56:18.641Z,14.46
2017-12-11T11:57:28.687Z,14.44
2017-12-11T11:58:38.750Z,14.42
2017-12-11T11:59:48.293Z,14.46
2017-12-11T12:00:58.345Z,14.41
2017-12-11T12:02:08.135Z,14.44
2017-12-11T12:03:18.194Z,14.51
2017-12-11T12:04:27.720Z,14.49
2017-12-11T12:05:37.254Z,14.51
2017-12-11T12:06:47.321Z,14.59
2017-12-11T12:07:57.384Z,14.59
2017-12-11T12:09:07.437Z,14.56
2017-12-11T12:10:17.494Z,14.53
2017-12-11T12:11:27.551Z,14.61
2017-12-11T12:12:37.634Z,14.64
2017-12-11T12:13:47.694Z,14.57
2017-12-11T12:14:57.484Z,14.6
2017-12-11T12:16:07.553Z,14.56
2017-12-11T12:17:17.624Z,14.51
2017-12-11T12:18:27.464Z,14.59
2017-12-11T12:19:37.528Z,14.57
2017-12-11T12:20:47.311Z,14.53
2017-12-11T12:21:57.109Z,14.66
2017-12-11T12:23:07.159Z,14.57
2017-12-11T12:24:16.960Z,14.6
2017-12-11T12:25:27.032Z,14.74
2017-12-11T12:26:36.819Z,14.75
2017-12-11T12:27:46.944Z,14.67
2017-12-11T12:28:56.768Z,14.53
2017-12-11T12:30:06.889Z,14.74
2017-12-11T12:31:16.685Z,14.64
2017-12-11T12:32:26.477Z,14.57
2017-12-11T12:33:36.538Z,14.67
2017-12-11T12:34:46.585Z,14.59
2017-12-11T12:35:56.649Z,14.59
2017-12-11T12:37:06.440Z,14.64
2017-12-11T12:38:16.508Z,14.74
2017-12-11T12:39:26.313Z,14.69
2017-12-11T12:40:36.384Z,14.66
2017-12-11T12:41:46.443Z,14.64
2017-12-11T12:42:56.494Z,14.63
2017-12-11T12:44:06.306Z,14.67
2017-12-11T12:45:16.366Z,14.7
2017-12-11T12:46:26.414Z,14.67
2017-12-11T12:47:36.223Z,14.74
2017-12-11T12:48:46.335Z,14.7
2017-12-11T12:49:56.388Z,14.74
2017-12-11T12:51:06.467Z,14.71
2017-12-11T12:52:16.525Z,14.77
2017-12-11T12:53:26.318Z,14.71
2017-12-11T12:54:36.423Z,14.79
2017-12-11T12:55:46.474Z,14.79
2017-12-11T12:56:56.271Z,14.75
2017-12-11T12:58:06.087Z,14.8
2017-12-11T12:59:15.882Z,14.74
2017-12-11T13:00:25.420Z,14.74
2017-12-11T13:01:35.285Z,14.75
2017-12-11T13:02:45.363Z,14.7
2017-12-11T13:03:55.437Z,14.7
2017-12-11T13:05:05.508Z,14.66
2017-12-11T13:06:15.564Z,14.66
2017-12-11T13:07:25.376Z,14.67
2017-12-11T13:08:35.456Z,14.52
2017-12-11T13:09:45.614Z,14.6
2017-12-11T13:10:55.691Z,14.61
2017-12-11T13:12:05.517Z,14.63
2017-12-11T13:13:15.288Z,14.7
2017-12-11T13:14:25.355Z,14.64
2017-12-11T13:15:35.157Z,14.74
2017-12-11T13:16:45.229Z,14.6
2017-12-11T13:17:55.307Z,14.57
2017-12-11T13:19:05.104Z,14.56
2017-12-11T13:20:15.184Z,14.57
2017-12-11T13:21:24.993Z,14.64
2017-12-11T13:22:35.068Z,14.56
2017-12-11T13:23:45.193Z,14.57
2017-12-11T13:24:55.254Z,14.6
2017-12-11T13:26:05.114Z,14.61
2017-12-11T13:27:14.923Z,14.53
2017-12-11T13:28:24.463Z,14.61
2017-12-11T13:29:34.269Z,14.59
2017-12-11T13:30:44.079Z,14.64
2017-12-11T13:31:54.158Z,14.59
2017-12-11T13:33:04.242Z,14.53
2017-12-11T13:34:14.303Z,14.61
2017-12-11T13:35:24.366Z,14.64
2017-12-11T13:36:34.420Z,14.66
2017-12-11T13:37:44.217Z,14.67
2017-12-11T13:38:53.821Z,14.7
2017-12-11T13:40:03.890Z,14.67
2017-12-11T13:41:13.965Z,14.64
2017-12-11T13:42:23.790Z,14.6
2017-12-11T13:43:33.861Z,14.6
2017-12-11T13:44:43.931Z,14.64
2017-12-11T13:45:53.990Z,14.61
2017-12-11T13:47:04.054Z,14.57
2017-12-11T13:48:14.134Z,14.66
2017-12-11T13:49:24.241Z,14.56
2017-12-11T13:50:34.302Z,14.63
2017-12-11T13:51:44.372Z,14.6
2017-12-11T13:52:54.168Z,14.64
2017-12-11T13:54:04.232Z,14.53
2017-12-11T13:55:14.312Z,14.59
2017-12-11T13:56:24.379Z,14.48
2017-12-11T13:57:34.469Z,14.51
2017-12-11T13:58:44.535Z,14.53
2017-12-11T13:59:54.353Z,14.51
2017-12-11T14:01:04.986Z,14.51
2017-12-11T14:02:15.059Z,14.52
2017-12-11T14:03:24.869Z,14.51
2017-12-11T14:04:34.414Z,14.49
2017-12-11T14:05:44.481Z,14.44
2017-12-11T14:06:54.338Z,14.48
2017-12-11T14:08:04.140Z,14.44
2017-12-11T14:09:13.953Z,14.44
2017-12-11T14:10:24.138Z,14.49
2017-12-11T14:11:34.202Z,14.45
2017-12-11T14:12:44.010Z,14.44
2017-12-11T14:13:54.820Z,14.42
2017-12-11T14:15:04.908Z,14.39
2017-12-11T14:16:14.716Z,14.3
2017-12-11T14:17:24.502Z,14.34
2017-12-11T14:18:34.624Z,14.33
2017-12-11T14:19:44.714Z,14.36
2017-12-11T14:20:54.503Z,14.33
2017-12-11T14:22:04.346Z,14.3
2017-12-11T14:23:14.412Z,14.26
2017-12-11T14:24:24.507Z,14.27
2017-12-11T14:25:34.596Z,14.33
2017-12-11T14:26:44.664Z,14.31
2017-12-11T14:27:54.457Z,14.3
2017-12-11T14:29:04.528Z,14.28
2017-12-11T14:30:14.380Z,14.27
2017-12-11T14:31:24.446Z,14.26
2017-12-11T14:32:34.252Z,14.33
2017-12-11T14:33:44.340Z,14.36
2017-12-11T14:34:54.413Z,14.26
2017-12-11T14:36:04.526Z,14.24
2017-12-11T14:37:14.600Z,14.34
2017-12-11T14:38:24.658Z,14.31
2017-12-11T14:39:34.719Z,14.28
2017-12-11T14:40:44.255Z,14.26
2017-12-11T14:41:53.805Z,14.3
2017-12-11T14:43:03.595Z,14.26
2017-12-11T14:44:13.685Z,14.31
2017-12-11T14:45:23.757Z,14.26
2017-12-11T14:46:33.940Z,14.26
2017-12-11T14:47:43.542Z,14.28
2017-12-11T14:48:54.169Z,14.28
2017-12-11T14:50:03.978Z,14.26
2017-12-11T14:51:13.538Z,14.28
2017-12-11T14:52:23.078Z,14.24
2017-12-11T14:53:33.230Z,14.31
2017-12-11T14:54:43.314Z,14.28
2017-12-11T14:55:53.130Z,14.27
2017-12-11T14:57:03.213Z,14.27
2017-12-11T14:58:13.307Z,14.31
2017-12-11T14:59:23.109Z,14.33
2017-12-11T15:00:32.652Z,14.33
2017-12-11T15:01:42.462Z,14.28
2017-12-11T15:02:52.300Z,14.28
2017-12-11T15:04:02.107Z,14.28
2017-12-11T15:05:11.650Z,14.28
2017-12-11T15:06:21.709Z,14.31
2017-12-11T15:07:31.248Z,14.33
2017-12-11T15:08:41.335Z,14.3
2017-12-11T15:09:51.124Z,14.33
2017-12-11T15:11:00.997Z,14.3
2017-12-11T15:12:11.137Z,14.39
2017-12-11T15:13:21.194Z,14.31
2017-12-11T15:14:31.253Z,14.33
2017-12-11T15:15:41.334Z,14.31
2017-12-11T15:16:51.463Z,14.3
2017-12-11T15:18:02.285Z,14.28
2017-12-11T15:19:12.111Z,14.31
2017-12-11T15:20:21.913Z,14.34
2017-12-11T15:21:31.737Z,14.34
2017-12-11T15:22:41.307Z,14.26
2017-12-11T15:23:50.862Z,14.31
2017-12-11T15:25:00.401Z,14.31
2017-12-11T15:26:10.459Z,14.31
2017-12-11T15:27:20.288Z,14.33
2017-12-11T15:28:30.437Z,14.36
2017-12-11T15:29:40.509Z,14.27
2017-12-11T15:30:50.593Z,14.38
2017-12-11T15:32:00.415Z,14.3
2017-12-11T15:33:10.511Z,14.34
2017-12-11T15:34:20.119Z,14.24
2017-12-11T15:35:29.924Z,14.39
2017-12-11T15:36:39.798Z,14.45
2017-12-11T15:37:49.863Z,14.33
2017-12-11T15:38:59.934Z,14.45
2017-12-11T15:40:09.530Z,14.41
2017-12-11T15:41:19.342Z,14.38
2017-12-11T15:42:29.423Z,14.42
2017-12-11T15:43:39.487Z,14.46
2017-12-11T15:44:49.563Z,14.42
2017-12-11T15:45:59.633Z,14.45
2017-12-11T15:47:09.696Z,14.51